sensor_id;sensor_type;location;lat;lon;timestamp;temperature;humidity
9393;DHT22;4736;52.508;13.422;2023-04-25T00:01:37;8.50;66.90
9393;DHT22;4736;52.508;13.422;2023-04-25T00:04:40;8.50;66.60
9393;DHT22;4736;52.508;13.422;2023-04-25T00:07:44;8.50;66.40
9393;DHT22;4736;52.508;13.422;2023-04-25T00:10:47;8.50;66.40
9393;DHT22;4736;52.508;13.422;2023-04-25T00:13:52;8.40;66.40
9393;DHT22;4736;52.508;13.422;2023-04-25T00:16:56;8.50;66.20
9393;DHT22;4736;52.508;13.422;2023-04-25T00:19:59;8.50;65.70
9393;DHT22;4736;52.508;13.422;2023-04-25T00:23:02;8.50;65.80
9393;DHT22;4736;52.508;13.422;2023-04-25T00:26:06;8.40;65.70
9393;DHT22;4736;52.508;13.422;2023-04-25T00:29:11;8.50;65.50
9393;DHT22;4736;52.508;13.422;2023-04-25T00:32:14;8.40;65.30
9393;DHT22;4736;52.508;13.422;2023-04-25T00:35:17;8.40;65.20
9393;DHT22;4736;52.508;13.422;2023-04-25T00:38:20;8.40;65.30
9393;DHT22;4736;52.508;13.422;2023-04-25T00:41:25;8.40;65.20
9393;DHT22;4736;52.508;13.422;2023-04-25T00:44:30;8.50;65.20
9393;DHT22;4736;52.508;13.422;2023-04-25T00:47:35;8.50;65.10
9393;DHT22;4736;52.508;13.422;2023-04-25T00:50:39;8.50;65.30
9393;DHT22;4736;52.508;13.422;2023-04-25T00:53:42;8.50;65.30
9393;DHT22;4736;52.508;13.422;2023-04-25T00:56:46;8.50;65.30
9393;DHT22;4736;52.508;13.422;2023-04-25T00:59:51;8.50;65.30
9393;DHT22;4736;52.508;13.422;2023-04-25T01:02:54;8.40;65.50
9393;DHT22;4736;52.508;13.422;2023-04-25T02:02:42;8.40;65.30
9393;DHT22;4736;52.508;13.422;2023-04-25T02:05:45;8.40;65.50
9393;DHT22;4736;52.508;13.422;2023-04-25T02:08:48;8.40;65.60
9393;DHT22;4736;52.508;13.422;2023-04-25T02:11:53;8.40;65.60
9393;DHT22;4736;52.508;13.422;2023-04-25T02:14:56;8.40;65.70
9393;DHT22;4736;52.508;13.422;2023-04-25T02:18:00;8.30;65.70
9393;DHT22;4736;52.508;13.422;2023-04-25T02:21:04;8.30;65.70
9393;DHT22;4736;52.508;13.422;2023-04-25T02:24:08;8.40;65.70
9393;DHT22;4736;52.508;13.422;2023-04-25T02:27:11;8.30;65.70
9393;DHT22;4736;52.508;13.422;2023-04-25T02:30:14;8.20;65.90
9393;DHT22;4736;52.508;13.422;2023-04-25T02:33:20;8.20;65.90
9393;DHT22;4736;52.508;13.422;2023-04-25T02:36:23;8.30;65.80
9393;DHT22;4736;52.508;13.422;2023-04-25T02:39:28;8.30;65.60
9393;DHT22;4736;52.508;13.422;2023-04-25T02:42:31;8.20;65.80
9393;DHT22;4736;52.508;13.422;2023-04-25T02:45:34;8.20;66.00
9393;DHT22;4736;52.508;13.422;2023-04-25T02:48:40;8.20;65.80
9393;DHT22;4736;52.508;13.422;2023-04-25T02:51:44;8.30;65.90
9393;DHT22;4736;52.508;13.422;2023-04-25T02:54:47;8.20;66.00
9393;DHT22;4736;52.508;13.422;2023-04-25T02:57:50;8.20;66.10
9393;DHT22;4736;52.508;13.422;2023-04-25T03:00:53;8.20;66.00
9393;DHT22;4736;52.508;13.422;2023-04-25T03:03:58;8.20;65.90
9393;DHT22;4736;52.508;13.422;2023-04-25T03:07:01;8.20;66.10
9393;DHT22;4736;52.508;13.422;2023-04-25T03:10:05;8.20;66.10
9393;DHT22;4736;52.508;13.422;2023-04-25T03:13:08;8.20;66.00
9393;DHT22;4736;52.508;13.422;2023-04-25T03:16:12;8.20;65.90
9393;DHT22;4736;52.508;13.422;2023-04-25T03:19:18;8.20;66.00
9393;DHT22;4736;52.508;13.422;2023-04-25T03:22:22;8.20;66.20
9393;DHT22;4736;52.508;13.422;2023-04-25T03:25:25;8.20;66.00
9393;DHT22;4736;52.508;13.422;2023-04-25T03:28:28;8.20;66.00
9393;DHT22;4736;52.508;13.422;2023-04-25T03:31:31;8.20;66.00
9393;DHT22;4736;52.508;13.422;2023-04-25T03:34:36;8.20;66.10
9393;DHT22;4736;52.508;13.422;2023-04-25T03:37:39;8.10;66.40
9393;DHT22;4736;52.508;13.422;2023-04-25T03:40:48;8.10;66.20
9393;DHT22;4736;52.508;13.422;2023-04-25T03:43:52;8.20;66.10
9393;DHT22;4736;52.508;13.422;2023-04-25T03:46:55;8.20;66.20
9393;DHT22;4736;52.508;13.422;2023-04-25T03:50:00;8.10;66.40
9393;DHT22;4736;52.508;13.422;2023-04-25T03:53:04;8.20;66.30
9393;DHT22;4736;52.508;13.422;2023-04-25T03:56:07;8.20;66.30
9393;DHT22;4736;52.508;13.422;2023-04-25T03:59:11;8.20;66.40
9393;DHT22;4736;52.508;13.422;2023-04-25T04:02:14;8.20;66.40
9393;DHT22;4736;52.508;13.422;2023-04-25T04:05:19;8.20;66.30
9393;DHT22;4736;52.508;13.422;2023-04-25T04:08:22;8.20;66.20
9393;DHT22;4736;52.508;13.422;2023-04-25T04:11:27;8.10;66.20
9393;DHT22;4736;52.508;13.422;2023-04-25T04:14:31;8.10;66.50
9393;DHT22;4736;52.508;13.422;2023-04-25T04:17:34;8.10;66.40
9393;DHT22;4736;52.508;13.422;2023-04-25T04:20:39;8.20;66.20
9393;DHT22;4736;52.508;13.422;2023-04-25T04:23:43;8.20;66.40
9393;DHT22;4736;52.508;13.422;2023-04-25T04:26:48;8.20;66.20
9393;DHT22;4736;52.508;13.422;2023-04-25T04:29:52;8.20;66.40
9393;DHT22;4736;52.508;13.422;2023-04-25T04:32:55;8.10;66.40
9393;DHT22;4736;52.508;13.422;2023-04-25T04:36:02;8.20;66.40
9393;DHT22;4736;52.508;13.422;2023-04-25T04:39:06;8.10;66.60
9393;DHT22;4736;52.508;13.422;2023-04-25T04:42:10;8.10;66.50
9393;DHT22;4736;52.508;13.422;2023-04-25T04:45:14;8.10;66.60
9393;DHT22;4736;52.508;13.422;2023-04-25T04:48:18;8.20;66.40
9393;DHT22;4736;52.508;13.422;2023-04-25T04:51:24;8.20;66.40
9393;DHT22;4736;52.508;13.422;2023-04-25T04:54:29;8.20;66.40
9393;DHT22;4736;52.508;13.422;2023-04-25T04:57:32;8.30;66.40
9393;DHT22;4736;52.508;13.422;2023-04-25T05:00:35;8.30;66.10
9393;DHT22;4736;52.508;13.422;2023-04-25T05:03:39;8.30;66.30
9393;DHT22;4736;52.508;13.422;2023-04-25T05:06:43;8.30;66.20
9393;DHT22;4736;52.508;13.422;2023-04-25T05:09:49;8.30;66.20
9393;DHT22;4736;52.508;13.422;2023-04-25T05:12:52;8.30;66.10
9393;DHT22;4736;52.508;13.422;2023-04-25T05:15:56;8.40;66.20
9393;DHT22;4736;52.508;13.422;2023-04-25T05:18:59;8.40;66.10
9393;DHT22;4736;52.508;13.422;2023-04-25T05:22:03;8.50;65.90
9393;DHT22;4736;52.508;13.422;2023-04-25T05:25:07;8.60;65.80
9393;DHT22;4736;52.508;13.422;2023-04-25T05:28:11;8.60;65.90
9393;DHT22;4736;52.508;13.422;2023-04-25T05:31:15;8.60;65.80
9393;DHT22;4736;52.508;13.422;2023-04-25T05:34:18;8.40;65.90
9393;DHT22;4736;52.508;13.422;2023-04-25T05:37:22;8.40;66.10
9393;DHT22;4736;52.508;13.422;2023-04-25T05:40:25;8.40;65.80
9393;DHT22;4736;52.508;13.422;2023-04-25T05:43:29;8.40;66.10
9393;DHT22;4736;52.508;13.422;2023-04-25T05:46:31;8.40;66.00
9393;DHT22;4736;52.508;13.422;2023-04-25T05:49:35;8.40;66.40
9393;DHT22;4736;52.508;13.422;2023-04-25T05:52:39;8.30;66.20
9393;DHT22;4736;52.508;13.422;2023-04-25T05:55:42;8.40;66.20
9393;DHT22;4736;52.508;13.422;2023-04-25T05:58:45;8.40;66.40
9393;DHT22;4736;52.508;13.422;2023-04-25T06:01:49;8.50;66.30
9393;DHT22;4736;52.508;13.422;2023-04-25T06:04:52;8.50;66.50
9393;DHT22;4736;52.508;13.422;2023-04-25T06:07:57;8.50;66.40
9393;DHT22;4736;52.508;13.422;2023-04-25T06:11:00;8.50;66.80
9393;DHT22;4736;52.508;13.422;2023-04-25T06:14:03;8.50;66.80
9393;DHT22;4736;52.508;13.422;2023-04-25T06:17:06;8.60;66.90
9393;DHT22;4736;52.508;13.422;2023-04-25T06:20:11;8.60;67.00
9393;DHT22;4736;52.508;13.422;2023-04-25T06:23:15;8.60;67.00
9393;DHT22;4736;52.508;13.422;2023-04-25T06:26:19;8.60;67.00
9393;DHT22;4736;52.508;13.422;2023-04-25T06:29:22;8.60;67.00
9393;DHT22;4736;52.508;13.422;2023-04-25T06:32:25;8.60;67.20
9393;DHT22;4736;52.508;13.422;2023-04-25T06:35:30;8.60;67.20
9393;DHT22;4736;52.508;13.422;2023-04-25T06:38:35;8.70;67.20
9393;DHT22;4736;52.508;13.422;2023-04-25T06:41:38;8.80;67.00
9393;DHT22;4736;52.508;13.422;2023-04-25T06:44:41;8.80;66.90
9393;DHT22;4736;52.508;13.422;2023-04-25T06:47:44;8.80;67.20
9393;DHT22;4736;52.508;13.422;2023-04-25T06:50:47;8.80;67.00
9393;DHT22;4736;52.508;13.422;2023-04-25T06:53:52;8.90;67.00
9393;DHT22;4736;52.508;13.422;2023-04-25T06:56:55;8.90;66.70
9393;DHT22;4736;52.508;13.422;2023-04-25T06:59:58;8.70;67.00
9393;DHT22;4736;52.508;13.422;2023-04-25T07:03:03;8.70;67.40
9393;DHT22;4736;52.508;13.422;2023-04-25T07:06:06;8.60;67.70
9393;DHT22;4736;52.508;13.422;2023-04-25T07:09:11;8.70;67.50
9393;DHT22;4736;52.508;13.422;2023-04-25T07:12:14;8.80;67.50
9393;DHT22;4736;52.508;13.422;2023-04-25T07:15:18;8.80;67.30
9393;DHT22;4736;52.508;13.422;2023-04-25T07:18:21;8.80;67.30
9393;DHT22;4736;52.508;13.422;2023-04-25T07:21:24;8.80;67.60
9393;DHT22;4736;52.508;13.422;2023-04-25T07:24:28;8.60;68.00
9393;DHT22;4736;52.508;13.422;2023-04-25T07:27:32;8.50;68.40
9393;DHT22;4736;52.508;13.422;2023-04-25T07:30:35;8.50;68.70
9393;DHT22;4736;52.508;13.422;2023-04-25T07:33:38;8.40;68.90
9393;DHT22;4736;52.508;13.422;2023-04-25T07:36:41;8.50;69.30
9393;DHT22;4736;52.508;13.422;2023-04-25T07:39:45;8.50;68.70
9393;DHT22;4736;52.508;13.422;2023-04-25T07:42:48;8.50;68.00
9393;DHT22;4736;52.508;13.422;2023-04-25T07:45:53;8.40;67.80
9393;DHT22;4736;52.508;13.422;2023-04-25T07:48:56;8.50;67.50
9393;DHT22;4736;52.508;13.422;2023-04-25T07:51:59;8.60;67.10
9393;DHT22;4736;52.508;13.422;2023-04-25T07:55:04;8.60;65.80
9393;DHT22;4736;52.508;13.422;2023-04-25T07:58:07;8.70;65.30
9393;DHT22;4736;52.508;13.422;2023-04-25T08:01:10;8.90;64.90
9393;DHT22;4736;52.508;13.422;2023-04-25T08:04:13;8.90;64.70
9393;DHT22;4736;52.508;13.422;2023-04-25T08:07:17;9.00;63.90
9393;DHT22;4736;52.508;13.422;2023-04-25T08:10:21;8.90;63.30
9393;DHT22;4736;52.508;13.422;2023-04-25T08:13:24;8.80;63.60
9393;DHT22;4736;52.508;13.422;2023-04-25T08:16:28;9.00;63.20
9393;DHT22;4736;52.508;13.422;2023-04-25T08:19:31;9.20;61.90
9393;DHT22;4736;52.508;13.422;2023-04-25T08:22:34;9.20;61.40
9393;DHT22;4736;52.508;13.422;2023-04-25T08:25:39;9.10;62.00
9393;DHT22;4736;52.508;13.422;2023-04-25T08:28:42;9.20;62.80
9393;DHT22;4736;52.508;13.422;2023-04-25T08:31:45;9.40;62.80
9393;DHT22;4736;52.508;13.422;2023-04-25T08:34:48;9.60;62.30
9393;DHT22;4736;52.508;13.422;2023-04-25T08:37:53;9.80;60.50
9393;DHT22;4736;52.508;13.422;2023-04-25T08:40:59;9.80;60.60
9393;DHT22;4736;52.508;13.422;2023-04-25T08:44:03;10.00;59.70
9393;DHT22;4736;52.508;13.422;2023-04-25T08:47:07;10.00;58.70
9393;DHT22;4736;52.508;13.422;2023-04-25T08:50:10;10.00;58.90
9393;DHT22;4736;52.508;13.422;2023-04-25T08:53:14;10.00;58.10
9393;DHT22;4736;52.508;13.422;2023-04-25T08:56:22;10.10;57.40
9393;DHT22;4736;52.508;13.422;2023-04-25T08:59:26;10.10;56.20
9393;DHT22;4736;52.508;13.422;2023-04-25T09:02:29;10.20;55.70
9393;DHT22;4736;52.508;13.422;2023-04-25T09:05:33;10.40;54.90
9393;DHT22;4736;52.508;13.422;2023-04-25T09:08:37;10.40;54.50
9393;DHT22;4736;52.508;13.422;2023-04-25T09:11:43;10.50;54.30
9393;DHT22;4736;52.508;13.422;2023-04-25T09:15:06;10.50;53.60
9393;DHT22;4736;52.508;13.422;2023-04-25T09:18:10;10.60;53.70
9393;DHT22;4736;52.508;13.422;2023-04-25T09:21:13;10.70;52.90
9393;DHT22;4736;52.508;13.422;2023-04-25T09:24:20;10.80;52.50
9393;DHT22;4736;52.508;13.422;2023-04-25T09:27:33;11.00;52.40
9393;DHT22;4736;52.508;13.422;2023-04-25T09:30:36;11.40;51.90
9393;DHT22;4736;52.508;13.422;2023-04-25T09:33:43;11.50;51.00
9393;DHT22;4736;52.508;13.422;2023-04-25T09:36:46;11.50;51.20
9393;DHT22;4736;52.508;13.422;2023-04-25T09:39:50;11.60;51.40
9393;DHT22;4736;52.508;13.422;2023-04-25T09:42:55;11.50;50.50
9393;DHT22;4736;52.508;13.422;2023-04-25T09:45:59;11.50;51.40
9393;DHT22;4736;52.508;13.422;2023-04-25T09:49:06;11.40;50.40
9393;DHT22;4736;52.508;13.422;2023-04-25T09:52:14;11.20;49.30
9393;DHT22;4736;52.508;13.422;2023-04-25T09:55:17;11.30;49.60
9393;DHT22;4736;52.508;13.422;2023-04-25T09:58:24;11.40;48.90
9393;DHT22;4736;52.508;13.422;2023-04-25T10:01:27;11.40;48.70
9393;DHT22;4736;52.508;13.422;2023-04-25T10:04:34;11.20;48.40
9393;DHT22;4736;52.508;13.422;2023-04-25T10:07:38;11.10;48.70
9393;DHT22;4736;52.508;13.422;2023-04-25T10:10:43;10.90;49.30
9393;DHT22;4736;52.508;13.422;2023-04-25T10:13:48;10.90;49.30
9393;DHT22;4736;52.508;13.422;2023-04-25T10:16:52;11.10;48.40
9393;DHT22;4736;52.508;13.422;2023-04-25T10:19:57;11.30;49.50
9393;DHT22;4736;52.508;13.422;2023-04-25T10:23:08;11.30;48.70
9393;DHT22;4736;52.508;13.422;2023-04-25T10:26:14;11.30;48.30
9393;DHT22;4736;52.508;13.422;2023-04-25T10:29:24;11.20;47.80
9393;DHT22;4736;52.508;13.422;2023-04-25T10:32:27;11.30;48.30
9393;DHT22;4736;52.508;13.422;2023-04-25T10:35:33;11.50;48.30
9393;DHT22;4736;52.508;13.422;2023-04-25T10:38:37;11.30;48.40
9393;DHT22;4736;52.508;13.422;2023-04-25T10:41:47;11.10;48.80
9393;DHT22;4736;52.508;13.422;2023-04-25T10:45:05;11.20;48.50
9393;DHT22;4736;52.508;13.422;2023-04-25T10:48:24;11.20;48.70
9393;DHT22;4736;52.508;13.422;2023-04-25T10:51:29;11.40;47.80
9393;DHT22;4736;52.508;13.422;2023-04-25T10:54:56;11.40;48.50
9393;DHT22;4736;52.508;13.422;2023-04-25T10:58:00;11.40;48.00
9393;DHT22;4736;52.508;13.422;2023-04-25T11:01:06;11.40;48.40
9393;DHT22;4736;52.508;13.422;2023-04-25T11:04:23;11.30;48.10
9393;DHT22;4736;52.508;13.422;2023-04-25T11:07:34;11.40;47.70
9393;DHT22;4736;52.508;13.422;2023-04-25T11:10:40;11.50;47.80
9393;DHT22;4736;52.508;13.422;2023-04-25T11:13:43;11.90;47.90
9393;DHT22;4736;52.508;13.422;2023-04-25T11:16:54;12.00;47.00
9393;DHT22;4736;52.508;13.422;2023-04-25T11:20:01;11.70;46.90
9393;DHT22;4736;52.508;13.422;2023-04-25T11:23:08;11.50;47.50
9393;DHT22;4736;52.508;13.422;2023-04-25T11:26:11;11.10;48.20
9393;DHT22;4736;52.508;13.422;2023-04-25T11:29:14;10.90;48.20
9393;DHT22;4736;52.508;13.422;2023-04-25T11:32:19;10.60;48.70
9393;DHT22;4736;52.508;13.422;2023-04-25T11:35:22;10.50;49.50
9393;DHT22;4736;52.508;13.422;2023-04-25T11:38:27;10.50;48.20
9393;DHT22;4736;52.508;13.422;2023-04-25T11:41:30;10.50;48.00
9393;DHT22;4736;52.508;13.422;2023-04-25T11:44:34;10.50;46.80
9393;DHT22;4736;52.508;13.422;2023-04-25T11:47:38;10.50;47.30
9393;DHT22;4736;52.508;13.422;2023-04-25T11:50:41;10.50;46.70
9393;DHT22;4736;52.508;13.422;2023-04-25T11:53:45;10.60;46.10
9393;DHT22;4736;52.508;13.422;2023-04-25T11:56:48;10.60;46.40
9393;DHT22;4736;52.508;13.422;2023-04-25T11:59:51;10.80;46.20
9393;DHT22;4736;52.508;13.422;2023-04-25T12:02:56;10.80;46.00
9393;DHT22;4736;52.508;13.422;2023-04-25T12:06:03;11.00;45.90
9393;DHT22;4736;52.508;13.422;2023-04-25T12:09:08;11.00;45.70
9393;DHT22;4736;52.508;13.422;2023-04-25T12:12:12;11.10;45.90
9393;DHT22;4736;52.508;13.422;2023-04-25T12:15:17;11.10;46.30
9393;DHT22;4736;52.508;13.422;2023-04-25T12:18:24;11.00;46.70
9393;DHT22;4736;52.508;13.422;2023-04-25T12:21:29;10.80;47.20
9393;DHT22;4736;52.508;13.422;2023-04-25T12:24:36;10.70;48.40
9393;DHT22;4736;52.508;13.422;2023-04-25T12:27:41;10.80;46.90
9393;DHT22;4736;52.508;13.422;2023-04-25T12:30:58;10.70;46.40
9393;DHT22;4736;52.508;13.422;2023-04-25T12:34:04;10.90;45.50
9393;DHT22;4736;52.508;13.422;2023-04-25T12:37:06;11.00;45.20
9393;DHT22;4736;52.508;13.422;2023-04-25T12:40:10;11.30;44.90
9393;DHT22;4736;52.508;13.422;2023-04-25T12:43:13;11.50;44.90
9393;DHT22;4736;52.508;13.422;2023-04-25T12:46:16;11.70;44.80
9393;DHT22;4736;52.508;13.422;2023-04-25T12:49:21;11.70;45.30
9393;DHT22;4736;52.508;13.422;2023-04-25T12:52:25;11.70;45.00
9393;DHT22;4736;52.508;13.422;2023-04-25T12:55:28;11.40;45.50
9393;DHT22;4736;52.508;13.422;2023-04-25T12:58:31;11.40;46.40
9393;DHT22;4736;52.508;13.422;2023-04-25T13:01:35;11.40;46.20
9393;DHT22;4736;52.508;13.422;2023-04-25T13:04:39;11.50;45.50
9393;DHT22;4736;52.508;13.422;2023-04-25T13:07:42;11.20;45.60
9393;DHT22;4736;52.508;13.422;2023-04-25T13:10:45;11.00;45.50
9393;DHT22;4736;52.508;13.422;2023-04-25T13:13:49;11.30;45.70
9393;DHT22;4736;52.508;13.422;2023-04-25T13:16:53;11.30;45.40
9393;DHT22;4736;52.508;13.422;2023-04-25T13:19:58;11.40;44.80
9393;DHT22;4736;52.508;13.422;2023-04-25T13:23:01;11.40;45.00
9393;DHT22;4736;52.508;13.422;2023-04-25T13:26:04;11.50;45.10
9393;DHT22;4736;52.508;13.422;2023-04-25T13:29:07;11.90;44.60
9393;DHT22;4736;52.508;13.422;2023-04-25T13:32:10;12.20;44.60
9393;DHT22;4736;52.508;13.422;2023-04-25T13:35:17;12.10;45.00
9393;DHT22;4736;52.508;13.422;2023-04-25T13:38:21;12.10;45.00
9393;DHT22;4736;52.508;13.422;2023-04-25T13:41:24;11.90;45.50
9393;DHT22;4736;52.508;13.422;2023-04-25T13:44:27;11.70;46.00
9393;DHT22;4736;52.508;13.422;2023-04-25T13:47:30;11.70;45.90
9393;DHT22;4736;52.508;13.422;2023-04-25T13:50:35;11.50;46.40
9393;DHT22;4736;52.508;13.422;2023-04-25T13:53:38;11.70;46.80
9393;DHT22;4736;52.508;13.422;2023-04-25T13:56:41;11.70;46.50
9393;DHT22;4736;52.508;13.422;2023-04-25T13:59:44;12.00;46.40
9393;DHT22;4736;52.508;13.422;2023-04-25T14:02:47;11.90;46.60
9393;DHT22;4736;52.508;13.422;2023-04-25T14:05:53;11.80;45.70
9393;DHT22;4736;52.508;13.422;2023-04-25T14:08:58;11.80;47.00
9393;DHT22;4736;52.508;13.422;2023-04-25T14:12:04;11.60;47.50
9393;DHT22;4736;52.508;13.422;2023-04-25T14:15:08;11.50;47.50
9393;DHT22;4736;52.508;13.422;2023-04-25T14:18:12;11.40;47.40
9393;DHT22;4736;52.508;13.422;2023-04-25T14:21:16;11.10;47.20
9393;DHT22;4736;52.508;13.422;2023-04-25T14:24:22;10.80;47.40
9393;DHT22;4736;52.508;13.422;2023-04-25T14:27:25;10.60;47.60
9393;DHT22;4736;52.508;13.422;2023-04-25T14:30:30;10.60;48.10
9393;DHT22;4736;52.508;13.422;2023-04-25T14:33:33;10.50;48.20
9393;DHT22;4736;52.508;13.422;2023-04-25T14:36:38;10.40;47.70
9393;DHT22;4736;52.508;13.422;2023-04-25T14:39:41;10.30;47.60
9393;DHT22;4736;52.508;13.422;2023-04-25T14:42:47;10.30;47.80
9393;DHT22;4736;52.508;13.422;2023-04-25T14:45:50;10.40;47.90
9393;DHT22;4736;52.508;13.422;2023-04-25T14:48:53;10.70;48.40
9393;DHT22;4736;52.508;13.422;2023-04-25T14:51:59;11.00;47.40
9393;DHT22;4736;52.508;13.422;2023-04-25T14:55:03;11.30;47.20
9393;DHT22;4736;52.508;13.422;2023-04-25T14:58:07;11.40;47.30
9393;DHT22;4736;52.508;13.422;2023-04-25T15:01:10;11.10;48.60
9393;DHT22;4736;52.508;13.422;2023-04-25T15:04:14;10.80;48.70
9393;DHT22;4736;52.508;13.422;2023-04-25T15:07:20;10.50;49.00
9393;DHT22;4736;52.508;13.422;2023-04-25T15:10:23;10.40;49.50
9393;DHT22;4736;52.508;13.422;2023-04-25T15:13:26;10.10;50.10
9393;DHT22;4736;52.508;13.422;2023-04-25T15:16:29;10.00;50.40
9393;DHT22;4736;52.508;13.422;2023-04-25T15:19:35;10.00;50.50
9393;DHT22;4736;52.508;13.422;2023-04-25T15:22:41;9.90;50.50
9393;DHT22;4736;52.508;13.422;2023-04-25T15:25:44;10.00;50.80
9393;DHT22;4736;52.508;13.422;2023-04-25T15:28:47;10.00;50.10
9393;DHT22;4736;52.508;13.422;2023-04-25T15:31:51;10.10;50.20
9393;DHT22;4736;52.508;13.422;2023-04-25T15:34:55;10.30;49.30
9393;DHT22;4736;52.508;13.422;2023-04-25T15:37:59;10.40;49.00
9393;DHT22;4736;52.508;13.422;2023-04-25T15:41:03;10.60;48.40
9393;DHT22;4736;52.508;13.422;2023-04-25T15:44:07;10.50;48.10
9393;DHT22;4736;52.508;13.422;2023-04-25T15:47:11;10.50;48.30
9393;DHT22;4736;52.508;13.422;2023-04-25T15:50:15;10.50;48.50
9393;DHT22;4736;52.508;13.422;2023-04-25T15:53:19;10.50;48.60
9393;DHT22;4736;52.508;13.422;2023-04-25T15:56:22;10.40;49.20
9393;DHT22;4736;52.508;13.422;2023-04-25T15:59:26;10.30;49.20
9393;DHT22;4736;52.508;13.422;2023-04-25T16:02:29;10.20;49.20
9393;DHT22;4736;52.508;13.422;2023-04-25T16:05:33;10.20;49.40
9393;DHT22;4736;52.508;13.422;2023-04-25T16:08:37;10.20;49.70
9393;DHT22;4736;52.508;13.422;2023-04-25T16:11:40;10.20;50.10
9393;DHT22;4736;52.508;13.422;2023-04-25T16:14:44;10.20;49.60
9393;DHT22;4736;52.508;13.422;2023-04-25T16:17:47;10.10;48.40
9393;DHT22;4736;52.508;13.422;2023-04-25T16:20:52;10.10;47.50
9393;DHT22;4736;52.508;13.422;2023-04-25T16:23:56;10.00;48.30
9393;DHT22;4736;52.508;13.422;2023-04-25T16:27:00;10.00;48.40
9393;DHT22;4736;52.508;13.422;2023-04-25T16:30:08;10.00;48.30
9393;DHT22;4736;52.508;13.422;2023-04-25T16:33:12;9.90;48.40
9393;DHT22;4736;52.508;13.422;2023-04-25T16:36:15;9.90;48.00
9393;DHT22;4736;52.508;13.422;2023-04-25T16:39:20;9.80;47.50
9393;DHT22;4736;52.508;13.422;2023-04-25T16:42:23;9.60;47.70
9393;DHT22;4736;52.508;13.422;2023-04-25T16:45:28;9.60;47.70
9393;DHT22;4736;52.508;13.422;2023-04-25T16:48:31;9.60;48.20
9393;DHT22;4736;52.508;13.422;2023-04-25T16:51:35;9.50;47.70
9393;DHT22;4736;52.508;13.422;2023-04-25T16:54:39;9.40;47.70
9393;DHT22;4736;52.508;13.422;2023-04-25T16:57:43;9.40;48.20
9393;DHT22;4736;52.508;13.422;2023-04-25T17:00:46;9.40;48.20
9393;DHT22;4736;52.508;13.422;2023-04-25T17:03:49;9.40;48.30
9393;DHT22;4736;52.508;13.422;2023-04-25T17:06:53;9.40;48.30
9393;DHT22;4736;52.508;13.422;2023-04-25T17:09:58;9.40;48.70
9393;DHT22;4736;52.508;13.422;2023-04-25T17:13:01;9.40;48.80
9393;DHT22;4736;52.508;13.422;2023-04-25T17:16:05;9.20;49.60
9393;DHT22;4736;52.508;13.422;2023-04-25T17:19:10;9.20;49.30
9393;DHT22;4736;52.508;13.422;2023-04-25T17:22:14;9.00;49.70
9393;DHT22;4736;52.508;13.422;2023-04-25T17:25:19;9.00;49.90
9393;DHT22;4736;52.508;13.422;2023-04-25T17:28:22;9.00;50.10
9393;DHT22;4736;52.508;13.422;2023-04-25T17:31:25;9.00;49.90
9393;DHT22;4736;52.508;13.422;2023-04-25T17:34:28;9.00;50.20
9393;DHT22;4736;52.508;13.422;2023-04-25T17:37:32;8.90;50.10
9393;DHT22;4736;52.508;13.422;2023-04-25T17:40:37;8.90;50.40
9393;DHT22;4736;52.508;13.422;2023-04-25T17:43:40;8.80;50.50
9393;DHT22;4736;52.508;13.422;2023-04-25T17:46:43;8.60;51.30
9393;DHT22;4736;52.508;13.422;2023-04-25T17:49:47;8.60;51.20
9393;DHT22;4736;52.508;13.422;2023-04-25T17:52:50;8.60;51.10
9393;DHT22;4736;52.508;13.422;2023-04-25T17:55:54;8.60;51.40
9393;DHT22;4736;52.508;13.422;2023-04-25T17:58:57;8.50;51.80
9393;DHT22;4736;52.508;13.422;2023-04-25T18:02:01;8.40;52.10
9393;DHT22;4736;52.508;13.422;2023-04-25T18:05:05;8.40;52.40
9393;DHT22;4736;52.508;13.422;2023-04-25T18:08:12;8.40;52.60
9393;DHT22;4736;52.508;13.422;2023-04-25T18:11:17;8.30;52.90
9393;DHT22;4736;52.508;13.422;2023-04-25T18:14:20;8.30;52.90
9393;DHT22;4736;52.508;13.422;2023-04-25T18:17:24;8.20;53.10
9393;DHT22;4736;52.508;13.422;2023-04-25T18:20:27;8.20;53.00
9393;DHT22;4736;52.508;13.422;2023-04-25T18:23:30;8.20;53.30
9393;DHT22;4736;52.508;13.422;2023-04-25T18:26:36;8.30;53.40
9393;DHT22;4736;52.508;13.422;2023-04-25T18:29:39;8.20;53.50
9393;DHT22;4736;52.508;13.422;2023-04-25T18:32:46;8.30;53.70
9393;DHT22;4736;52.508;13.422;2023-04-25T18:35:49;8.30;54.60
9393;DHT22;4736;52.508;13.422;2023-04-25T18:38:55;8.20;55.30
9393;DHT22;4736;52.508;13.422;2023-04-25T18:42:05;8.10;55.70
9393;DHT22;4736;52.508;13.422;2023-04-25T18:45:10;8.00;56.10
9393;DHT22;4736;52.508;13.422;2023-04-25T18:48:13;8.00;56.40
9393;DHT22;4736;52.508;13.422;2023-04-25T18:51:16;7.90;56.60
9393;DHT22;4736;52.508;13.422;2023-04-25T18:54:19;7.80;56.90
9393;DHT22;4736;52.508;13.422;2023-04-25T18:57:24;7.80;57.00
9393;DHT22;4736;52.508;13.422;2023-04-25T19:00:27;7.80;57.20
9393;DHT22;4736;52.508;13.422;2023-04-25T19:03:31;7.80;56.80
9393;DHT22;4736;52.508;13.422;2023-04-25T19:06:35;7.80;56.80
9393;DHT22;4736;52.508;13.422;2023-04-25T19:09:38;7.80;56.50
9393;DHT22;4736;52.508;13.422;2023-04-25T19:12:42;7.90;56.00
9393;DHT22;4736;52.508;13.422;2023-04-25T19:15:45;7.90;55.30
9393;DHT22;4736;52.508;13.422;2023-04-25T19:18:48;7.80;55.00
9393;DHT22;4736;52.508;13.422;2023-04-25T19:21:53;7.80;54.90
9393;DHT22;4736;52.508;13.422;2023-04-25T19:24:56;7.80;54.80
9393;DHT22;4736;52.508;13.422;2023-04-25T19:28:13;7.80;54.80
9393;DHT22;4736;52.508;13.422;2023-04-25T19:31:17;7.80;54.40
9393;DHT22;4736;52.508;13.422;2023-04-25T19:34:21;7.80;54.30
9393;DHT22;4736;52.508;13.422;2023-04-25T19:37:24;7.70;54.10
9393;DHT22;4736;52.508;13.422;2023-04-25T19:40:27;7.80;53.40
9393;DHT22;4736;52.508;13.422;2023-04-25T19:43:33;7.60;53.50
9393;DHT22;4736;52.508;13.422;2023-04-25T19:46:36;7.60;53.00
9393;DHT22;4736;52.508;13.422;2023-04-25T19:49:40;7.60;53.30
9393;DHT22;4736;52.508;13.422;2023-04-25T19:52:43;7.50;53.50
9393;DHT22;4736;52.508;13.422;2023-04-25T19:55:46;7.50;53.70
9393;DHT22;4736;52.508;13.422;2023-04-25T19:58:51;7.50;54.00
9393;DHT22;4736;52.508;13.422;2023-04-25T20:01:54;7.40;54.30
9393;DHT22;4736;52.508;13.422;2023-04-25T20:04:58;7.40;54.30
9393;DHT22;4736;52.508;13.422;2023-04-25T20:08:02;7.30;54.80
9393;DHT22;4736;52.508;13.422;2023-04-25T20:11:05;7.30;55.00
9393;DHT22;4736;52.508;13.422;2023-04-25T20:14:09;7.20;55.20
9393;DHT22;4736;52.508;13.422;2023-04-25T20:17:13;7.20;55.70
9393;DHT22;4736;52.508;13.422;2023-04-25T20:20:19;7.20;56.00
9393;DHT22;4736;52.508;13.422;2023-04-25T20:23:22;7.20;56.10
9393;DHT22;4736;52.508;13.422;2023-04-25T20:26:27;7.20;56.20
9393;DHT22;4736;52.508;13.422;2023-04-25T20:29:36;7.10;56.40
9393;DHT22;4736;52.508;13.422;2023-04-25T20:32:41;7.10;56.50
9393;DHT22;4736;52.508;13.422;2023-04-25T20:35:44;7.00;56.60
9393;DHT22;4736;52.508;13.422;2023-04-25T20:38:49;7.00;57.00
9393;DHT22;4736;52.508;13.422;2023-04-25T20:41:53;6.90;56.90
9393;DHT22;4736;52.508;13.422;2023-04-25T20:44:58;6.90;56.90
9393;DHT22;4736;52.508;13.422;2023-04-25T20:48:01;6.90;57.10
9393;DHT22;4736;52.508;13.422;2023-04-25T20:51:05;6.90;57.30